createdAt,value
2023-04-11T00:01:13.968Z,98803.22
2023-04-11T00:03:40.966Z,98806.03
2023-04-11T00:06:07.801Z,98795.06
2023-04-11T00:08:34.515Z,98792.13
2023-04-11T00:11:00.887Z,98786.66
2023-04-11T00:13:27.293Z,98783.81
2023-04-11T00:15:55.949Z,98775.50
2023-04-11T00:18:22.998Z,98783.81
2023-04-11T00:20:49.464Z,98799.72
2023-04-11T00:23:15.931Z,98798.16
2023-04-11T00:25:42.340Z,98801.56
2023-04-11T00:28:09.940Z,98803.84
2023-04-11T00:30:36.447Z,98813.84
2023-04-11T00:33:03.894Z,98808.06
2023-04-11T00:35:34.219Z,98799.91
2023-04-11T00:38:02.096Z,98788.91
2023-04-11T00:40:28.530Z,98776.53
2023-04-11T00:42:56.203Z,98761.75
2023-04-11T00:45:23.231Z,98782.47
2023-04-11T00:47:50.942Z,98773.72
2023-04-11T00:50:18.752Z,98777.66
2023-04-11T00:52:47.805Z,98784.66
2023-04-11T00:55:14.844Z,98766.34
2023-04-11T00:57:42.593Z,98753.84
2023-04-11T01:00:10.639Z,98742.88
2023-04-11T01:02:38.462Z,98747.91
2023-04-11T01:05:05.847Z,98732.31
2023-04-11T01:07:33.348Z,98718.47
2023-04-11T01:10:02.621Z,98717.38
2023-04-11T01:12:30.868Z,98717.25
2023-04-11T01:14:57.798Z,98712.34
2023-04-11T01:17:26.602Z,98706.41
2023-04-11T01:19:53.866Z,98716.41
2023-04-11T01:22:24.377Z,98714.44
2023-04-11T01:24:51.374Z,98700.34
2023-04-11T01:27:18.322Z,98701.47
2023-04-11T01:29:44.695Z,98711.19
2023-04-11T01:32:11.174Z,98721.63
2023-04-11T01:34:41.075Z,98727.53
2023-04-11T01:37:08.149Z,98725.56
2023-04-11T01:39:34.886Z,98730.06
2023-04-11T01:42:02.789Z,98731.34
2023-04-11T01:44:31.803Z,98734.44
2023-04-11T01:46:58.413Z,98726.00
2023-04-11T01:49:26.121Z,98724.56
2023-04-11T01:51:52.728Z,98715.72
2023-04-11T01:54:19.359Z,98712.63
2023-04-11T01:56:46.657Z,98703.31
2023-04-11T01:59:13.138Z,98711.19
2023-04-11T02:01:40.673Z,98722.47
2023-04-11T02:04:07.147Z,98734.31
2023-04-11T02:06:33.866Z,98733.31
2023-04-11T02:09:00.354Z,98737.09
2023-04-11T02:11:27.220Z,98720.50
2023-04-11T02:13:53.616Z,98728.81
2023-04-11T02:16:20.983Z,98734.19
2023-04-11T02:18:47.437Z,98732.19
2023-04-11T02:21:14.399Z,98731.22
2023-04-11T02:23:40.742Z,98734.84
2023-04-11T02:26:07.611Z,98747.25
2023-04-11T02:28:34.160Z,98748.69
2023-04-11T02:31:01.406Z,98738.56
2023-04-11T02:33:27.964Z,98747.44
2023-04-11T02:35:54.853Z,98750.69
2023-04-11T02:38:21.432Z,98752.94
2023-04-11T02:40:47.998Z,98757.75
2023-04-11T02:43:15.143Z,98759.69
2023-04-11T02:45:42.098Z,98761.66
2023-04-11T02:48:08.485Z,98752.53
2023-04-11T02:50:34.872Z,98751.94
2023-04-11T02:53:01.652Z,98764.34
2023-04-11T02:55:28.005Z,98778.81
2023-04-11T02:57:54.421Z,98778.25
2023-04-11T03:00:21.309Z,98782.22
2023-04-11T03:02:49.009Z,98782.75
2023-04-11T03:05:16.113Z,98783.47
2023-04-11T03:07:43.789Z,98785.31
2023-04-11T03:10:10.911Z,98779.97
2023-04-11T03:12:37.342Z,98771.38
2023-04-11T03:15:04.335Z,98782.63
2023-04-11T03:17:30.737Z,98777.69
2023-04-11T03:19:57.112Z,98776.31
2023-04-11T03:22:24.718Z,98785.03
2023-04-11T03:24:51.173Z,98778.72
2023-04-11T03:27:17.765Z,98785.16
2023-04-11T03:29:44.151Z,98787.00
2023-04-11T03:32:10.944Z,98799.13
2023-04-11T03:34:37.303Z,98797.69
2023-04-11T03:37:03.787Z,98795.56
2023-04-11T03:39:30.209Z,98797.16
2023-04-11T03:41:57.930Z,98793.03
2023-04-11T03:44:24.283Z,98794.75
2023-04-11T03:46:51.157Z,98798.69
2023-04-11T03:49:17.524Z,98792.78
2023-04-11T03:51:44.319Z,98795.19
2023-04-11T03:54:10.697Z,98795.03
2023-04-11T03:56:37.413Z,98806.28
2023-04-11T03:59:03.829Z,98815.41
2023-04-11T04:01:32.074Z,98812.75
2023-04-11T04:04:00.540Z,98824.00
2023-04-11T04:06:28.587Z,98821.91
2023-04-11T04:08:55.425Z,98821.59
2023-04-11T04:11:21.900Z,98821.47
2023-04-11T04:13:48.994Z,98821.75
2023-04-11T04:16:17.512Z,98814.72
2023-04-11T04:18:44.006Z,98816.25
2023-04-11T04:21:10.365Z,98828.59
2023-04-11T04:23:39.564Z,98827.47
2023-04-11T04:26:06.869Z,98829.16
2023-04-11T04:28:33.573Z,98827.75
2023-04-11T04:31:02.751Z,98831.81
2023-04-11T04:33:32.849Z,98829.03
2023-04-11T04:36:00.427Z,98832.66
2023-04-11T04:38:28.789Z,98839.28
2023-04-11T04:40:56.834Z,98832.53
2023-04-11T04:43:24.276Z,98835.63
2023-04-11T04:45:51.010Z,98833.94
2023-04-11T04:48:17.475Z,98839.28
2023-04-11T04:50:45.496Z,98840.72
2023-04-11T04:53:11.909Z,98841.69
2023-04-11T04:55:38.362Z,98843.38
2023-04-11T04:58:04.733Z,98844.19
2023-04-11T05:00:31.263Z,98849.38
2023-04-11T05:02:57.919Z,98847.41
2023-04-11T05:05:24.579Z,98852.06
2023-04-11T05:07:51.039Z,98847.59
2023-04-11T05:10:17.785Z,98853.31
2023-04-11T05:12:44.209Z,98844.22
2023-04-11T05:15:11.741Z,98848.16
2023-04-11T05:17:38.786Z,98841.69
2023-04-11T05:20:07.549Z,98836.78
2023-04-11T05:22:34.182Z,98843.81
2023-04-11T05:25:00.988Z,98852.56
2023-04-11T05:27:27.705Z,98850.84
2023-04-11T05:29:54.171Z,98855.25
2023-04-11T05:32:20.636Z,98851.16
2023-04-11T05:34:56.550Z,98850.03
2023-04-11T05:37:25.949Z,98848.63
2023-04-11T05:39:52.650Z,98862.25
2023-04-11T05:42:19.038Z,98864.38
2023-04-11T05:44:45.499Z,98861.53
2023-04-11T05:47:11.875Z,98866.34
2023-04-11T05:49:38.459Z,98866.59
2023-04-11T05:52:05.318Z,98870.28
2023-04-11T05:54:36.272Z,98869.56
2023-04-11T05:57:03.562Z,98878.16
2023-04-11T05:59:33.058Z,98871.28
2023-04-11T06:01:59.894Z,98872.78
2023-04-11T06:04:26.776Z,98882.25
2023-04-11T06:06:53.907Z,98881.38
2023-04-11T06:09:20.422Z,98890.25
2023-04-11T06:11:46.820Z,98881.94
2023-04-11T06:14:13.642Z,98897.59
2023-04-11T06:16:40.136Z,98895.34
2023-04-11T06:19:06.545Z,98895.31
2023-04-11T06:21:32.954Z,98899.81
2023-04-11T06:24:09.808Z,98908.53
2023-04-11T06:26:36.177Z,98903.19
2023-04-11T06:29:06.644Z,98903.78
2023-04-11T06:31:41.402Z,98904.47
2023-04-11T06:34:08.179Z,98902.66
2023-04-11T06:36:42.862Z,98905.47
2023-04-11T06:39:09.777Z,98912.22
2023-04-11T06:41:36.313Z,98921.38
2023-04-11T06:44:02.714Z,98917.00
2023-04-11T06:46:29.178Z,98928.84
2023-04-11T06:48:56.440Z,98935.63
2023-04-11T06:51:23.255Z,98932.78
2023-04-11T06:53:49.937Z,98932.22
2023-04-11T06:56:16.402Z,98939.66
2023-04-11T06:58:43.103Z,98929.97
2023-04-11T07:01:09.554Z,98934.00
2023-04-11T07:03:36.861Z,98934.59
2023-04-11T07:06:03.611Z,98943.47
2023-04-11T07:08:30.403Z,98945.00
2023-04-11T07:10:56.832Z,98945.97
2023-04-11T07:13:23.245Z,98946.44
2023-04-11T07:15:49.650Z,98941.69
2023-04-11T07:18:16.349Z,98944.25
2023-04-11T07:20:43.029Z,98945.69
2023-04-11T07:23:09.482Z,98946.25
2023-04-11T07:25:36.852Z,98952.47
2023-04-11T07:28:07.052Z,98954.59
2023-04-11T07:30:35.591Z,98945.13
2023-04-11T07:33:03.034Z,98948.56
2023-04-11T07:35:30.256Z,98948.59
2023-04-11T07:37:58.110Z,98952.47
2023-04-11T07:40:24.731Z,98959.91
2023-04-11T07:42:51.092Z,98947.88
2023-04-11T07:45:17.733Z,98964.63
2023-04-11T07:47:44.201Z,98963.41
2023-04-11T07:50:10.985Z,98951.16
2023-04-11T07:52:37.487Z,98959.63
2023-04-11T07:55:04.350Z,98972.44
2023-04-11T07:57:30.865Z,98967.22
2023-04-11T08:00:01.101Z,98962.50
2023-04-11T08:02:27.689Z,98974.91
2023-04-11T08:04:54.377Z,98984.97
2023-04-11T08:07:20.851Z,98969.56
2023-04-11T08:09:47.219Z,98962.88
2023-04-11T08:12:14.064Z,98958.41
2023-04-11T08:14:40.464Z,98964.34
2023-04-11T08:17:17.558Z,98963.59
2023-04-11T08:19:51.753Z,98954.97
2023-04-11T08:22:18.455Z,98961.44
2023-04-11T08:24:45.569Z,98984.63
2023-04-11T08:27:12.044Z,98987.41
2023-04-11T08:29:38.765Z,98992.53
2023-04-11T08:32:05.303Z,98983.91
2023-04-11T08:34:34.805Z,98989.16
2023-04-11T08:37:01.709Z,98980.75
2023-04-11T08:39:28.124Z,98990.88
2023-04-11T08:41:55.984Z,98989.94
2023-04-11T08:44:37.065Z,98988.34
2023-04-11T08:47:05.932Z,98996.19
2023-04-11T08:49:32.314Z,99001.44
2023-04-11T08:51:59.869Z,99009.41
2023-04-11T08:54:26.893Z,98998.16
2023-04-11T08:56:53.262Z,99007.53
2023-04-11T08:59:20.142Z,99013.44
2023-04-11T09:01:46.694Z,99005.28
2023-04-11T09:04:13.652Z,99004.72
2023-04-11T09:06:42.259Z,99003.41
2023-04-11T09:09:29.103Z,98998.38
2023-04-11T09:11:55.528Z,99004.00
2023-04-11T09:14:26.406Z,98987.09
2023-04-11T09:17:00.997Z,99001.63
2023-04-11T09:19:30.362Z,99002.44
2023-04-11T09:22:00.430Z,98995.97
2023-04-11T09:24:31.995Z,98991.38
2023-04-11T09:27:17.135Z,98997.13
2023-04-11T09:29:48.304Z,99006.38
2023-04-11T09:32:32.033Z,98990.03
2023-04-11T09:35:20.173Z,99000.41
2023-04-11T09:37:49.085Z,99003.19
2023-04-11T09:40:17.251Z,98992.81
2023-04-11T09:42:45.023Z,98993.88
2023-04-11T09:45:22.323Z,98991.47
2023-04-11T09:47:51.146Z,99009.38
2023-04-11T09:50:17.954Z,98996.22
2023-04-11T09:52:45.949Z,99010.03
2023-04-11T09:55:16.739Z,98997.47
2023-04-11T09:57:48.482Z,98998.72
2023-04-11T10:00:18.738Z,99003.97
2023-04-11T10:02:48.695Z,98982.91
2023-04-11T10:05:18.273Z,98988.91
2023-04-11T10:08:07.886Z,98986.75
2023-04-11T10:10:36.379Z,99004.91
2023-04-11T10:13:03.502Z,98996.72
2023-04-11T10:15:30.224Z,98999.09
2023-04-11T10:18:13.603Z,98999.47
2023-04-11T10:20:50.513Z,98992.75
2023-04-11T10:23:17.175Z,99003.00
2023-04-11T10:25:50.862Z,99010.63
2023-04-11T10:28:35.351Z,98992.44
2023-04-11T10:31:10.371Z,99004.44
2023-04-11T10:33:38.419Z,99010.75
2023-04-11T10:36:12.729Z,99007.06
2023-04-11T10:38:47.288Z,99010.34
2023-04-11T10:41:40.099Z,99014.44
2023-04-11T10:44:24.612Z,99007.91
2023-04-11T10:46:53.828Z,99011.63
2023-04-11T10:49:40.592Z,98998.38
2023-04-11T10:52:23.640Z,99004.91
2023-04-11T10:54:54.755Z,98995.81
2023-04-11T10:57:22.581Z,98997.53
2023-04-11T10:59:52.104Z,99006.09
2023-04-11T11:02:22.328Z,99009.97
2023-04-11T11:04:49.352Z,99008.09
2023-04-11T11:07:16.903Z,99002.38
2023-04-11T11:09:49.245Z,99002.34
2023-04-11T11:12:16.928Z,98998.66
2023-04-11T11:14:46.064Z,98999.84
2023-04-11T11:17:13.766Z,99005.75
2023-04-11T11:19:47.784Z,99015.00
2023-04-11T11:22:18.428Z,99005.25
2023-04-11T11:24:45.347Z,99000.56
2023-04-11T11:27:24.971Z,99009.63
2023-04-11T11:29:52.899Z,99006.28
2023-04-11T11:32:33.505Z,99004.09
2023-04-11T11:35:00.165Z,99005.75
2023-04-11T11:37:26.982Z,99017.00
2023-04-11T11:39:54.064Z,99011.84
2023-04-11T11:42:20.924Z,99016.84
2023-04-11T11:44:47.821Z,99020.13
2023-04-11T11:47:20.806Z,99014.50
2023-04-11T11:49:47.259Z,99020.84
2023-04-11T11:52:41.008Z,99017.31
2023-04-11T11:55:28.624Z,99005.06
2023-04-11T11:57:59.974Z,99019.41
2023-04-11T12:00:28.134Z,99005.44
2023-04-11T12:02:57.020Z,99016.97
2023-04-11T12:05:25.204Z,99021.44
2023-04-11T12:07:55.638Z,99003.75
2023-04-11T12:10:22.023Z,99005.25
2023-04-11T12:12:53.222Z,98998.38
2023-04-11T12:15:22.740Z,99005.22
2023-04-11T12:17:51.877Z,99003.22
2023-04-11T12:20:25.052Z,98993.66
2023-04-11T12:22:53.669Z,99009.06
2023-04-11T12:25:22.525Z,99020.22
2023-04-11T12:27:49.315Z,99009.47
2023-04-11T12:30:15.906Z,99018.91
2023-04-11T12:32:43.753Z,99022.44
2023-04-11T12:35:11.183Z,99014.00
2023-04-11T12:37:38.153Z,99018.56
2023-04-11T12:40:12.628Z,99025.47
2023-04-11T12:42:53.232Z,99011.66
2023-04-11T12:45:25.316Z,99018.03
2023-04-11T12:47:52.300Z,99021.34
2023-04-11T12:50:19.289Z,99007.25
2023-04-11T12:52:45.835Z,98997.69
2023-04-11T12:55:13.126Z,98996.97
2023-04-11T12:57:39.727Z,99001.81
2023-04-11T13:00:07.101Z,99006.41
2023-04-11T13:02:42.060Z,98999.53
2023-04-11T13:05:11.335Z,98998.50
2023-04-11T13:07:37.846Z,98998.59
2023-04-11T13:10:07.778Z,99002.28
2023-04-11T13:12:39.582Z,99013.00
2023-04-11T13:15:07.351Z,98999.69
2023-04-11T13:17:33.856Z,98997.06
2023-04-11T13:20:00.344Z,99004.38
2023-04-11T13:22:27.407Z,98995.81
2023-04-11T13:24:53.769Z,98995.81
2023-04-11T13:27:20.158Z,98997.00
2023-04-11T13:29:46.845Z,99006.56
2023-04-11T13:32:13.752Z,99009.06
2023-04-11T13:34:40.674Z,99010.16
2023-04-11T13:37:07.582Z,99001.06
2023-04-11T13:39:34.051Z,98989.28
2023-04-11T13:42:01.138Z,98988.31
2023-04-11T13:44:27.536Z,98993.75
2023-04-11T13:46:54.565Z,98999.97
2023-04-11T13:49:21.045Z,99007.28
2023-04-11T13:51:47.497Z,98994.66
2023-04-11T13:54:13.950Z,98998.84
2023-04-11T13:56:41.065Z,98994.13
2023-04-11T13:59:07.475Z,98992.38
2023-04-11T14:01:34.285Z,98986.66
2023-04-11T14:04:01.627Z,98993.47
2023-04-11T14:06:28.305Z,98992.81
2023-04-11T14:08:54.761Z,98990.44
2023-04-11T14:11:21.564Z,98996.16
2023-04-11T14:13:48.420Z,98988.41
2023-04-11T14:16:15.120Z,98988.44
2023-04-11T14:18:41.802Z,98995.16
2023-04-11T14:21:08.526Z,98987.22
2023-04-11T14:23:34.971Z,98983.72
2023-04-11T14:26:01.952Z,98987.41
2023-04-11T14:28:29.063Z,98999.00
2023-04-11T14:30:56.845Z,99006.44
2023-04-11T14:33:23.683Z,98997.19
2023-04-11T14:35:50.803Z,98993.59
2023-04-11T14:38:17.205Z,98974.50
2023-04-11T14:40:44.210Z,98982.50
2023-04-11T14:43:11.324Z,98980.63
2023-04-11T14:45:37.958Z,98977.63
2023-04-11T14:48:14.485Z,98973.09
2023-04-11T14:50:41.366Z,98974.41
2023-04-11T14:53:07.782Z,98966.63
2023-04-11T14:55:47.223Z,98967.59
2023-04-11T14:58:13.686Z,98967.56
2023-04-11T15:00:40.896Z,98963.81
2023-04-11T15:03:07.480Z,98963.81
2023-04-11T15:05:33.932Z,98970.13
2023-04-11T15:08:00.804Z,98971.56
2023-04-11T15:10:27.276Z,98971.25
2023-04-11T15:12:53.861Z,98966.19
2023-04-11T15:15:20.390Z,98959.97
2023-04-11T15:17:49.374Z,98967.06
2023-04-11T15:20:16.785Z,98971.41
2023-04-11T15:22:45.203Z,98966.88
2023-04-11T15:25:13.915Z,98971.06
2023-04-11T15:27:40.867Z,98967.34
2023-04-11T15:30:08.049Z,98966.84
2023-04-11T15:32:34.805Z,98969.53
2023-04-11T15:35:01.796Z,98968.56
2023-04-11T15:37:28.691Z,98958.41
2023-04-11T15:39:55.447Z,98960.69
2023-04-11T15:42:21.848Z,98956.38
2023-04-11T15:44:48.584Z,98954.72
2023-04-11T15:47:16.426Z,98949.97
2023-04-11T15:49:43.432Z,98941.56
2023-04-11T15:52:09.870Z,98936.41
2023-04-11T15:54:36.727Z,98945.56
2023-04-11T15:57:04.035Z,98941.81
2023-04-11T15:59:30.740Z,98935.88
2023-04-11T16:01:57.771Z,98940.63
2023-04-11T16:04:25.313Z,98936.34
2023-04-11T16:06:52.556Z,98938.00
2023-04-11T16:09:19.113Z,98938.69
2023-04-11T16:11:45.668Z,98937.53
2023-04-11T16:14:12.118Z,98938.53
2023-04-11T16:16:38.658Z,98942.09
2023-04-11T16:19:06.076Z,98939.59
2023-04-11T16:21:32.890Z,98936.56
2023-04-11T16:23:59.498Z,98938.28
2023-04-11T16:26:29.470Z,98931.03
2023-04-11T16:28:56.019Z,98934.56
2023-04-11T16:31:24.865Z,98929.69
2023-04-11T16:33:53.301Z,98915.50
2023-04-11T16:36:20.508Z,98922.25
2023-04-11T16:38:47.657Z,98911.66
2023-04-11T16:41:16.405Z,98906.25
2023-04-11T16:43:43.207Z,98908.13
2023-04-11T16:46:14.694Z,98913.66
2023-04-11T16:48:43.162Z,98907.09
2023-04-11T16:51:13.516Z,98906.09
2023-04-11T16:53:40.559Z,98909.41
2023-04-11T16:56:07.340Z,98906.84
2023-04-11T16:58:34.033Z,98902.09
2023-04-11T17:01:01.732Z,98902.59
2023-04-11T17:03:28.967Z,98902.53
2023-04-11T17:05:55.810Z,98900.97
2023-04-11T17:08:22.306Z,98905.47
2023-04-11T17:10:48.721Z,98893.47
2023-04-11T17:13:15.922Z,98903.53
2023-04-11T17:15:42.410Z,98909.84
2023-04-11T17:18:08.912Z,98904.63
2023-04-11T17:20:36.619Z,98905.66
2023-04-11T17:23:03.375Z,98899.75
2023-04-11T17:25:30.089Z,98902.53
2023-04-11T17:27:57.381Z,98903.72
2023-04-11T17:30:23.811Z,98908.13
2023-04-11T17:32:50.610Z,98902.22
2023-04-11T17:35:17.044Z,98907.69
2023-04-11T17:37:43.775Z,98909.84
2023-04-11T17:40:14.335Z,98905.09
2023-04-11T17:42:44.003Z,98911.63
2023-04-11T17:45:18.541Z,98900.06
2023-04-11T17:47:49.731Z,98899.34
2023-04-11T17:50:17.107Z,98897.78
2023-04-11T17:52:46.120Z,98895.34
2023-04-11T17:55:15.195Z,98897.97
2023-04-11T17:57:42.576Z,98889.53
2023-04-11T18:00:17.555Z,98888.44
2023-04-11T18:02:48.119Z,98884.13
2023-04-11T18:05:23.820Z,98886.22
2023-04-11T18:07:53.037Z,98886.06
2023-04-11T18:10:20.239Z,98889.94
2023-04-11T18:12:49.110Z,98883.13
2023-04-11T18:15:16.023Z,98886.38
2023-04-11T18:17:43.848Z,98887.28
2023-04-11T18:20:12.601Z,98884.34
2023-04-11T18:22:41.140Z,98893.53
2023-04-11T18:25:08.946Z,98895.69
2023-04-11T18:27:37.175Z,98888.13
2023-04-11T18:30:05.784Z,98890.69
2023-04-11T18:32:37.778Z,98899.06
2023-04-11T18:35:11.640Z,98898.13
2023-04-11T18:37:42.964Z,98896.69
2023-04-11T18:40:14.090Z,98900.25
2023-04-11T18:42:43.706Z,98899.97
2023-04-11T18:45:11.584Z,98903.53
2023-04-11T18:47:40.034Z,98902.00
2023-04-11T18:50:08.143Z,98896.75
2023-04-11T18:52:35.103Z,98902.38
2023-04-11T18:55:01.567Z,98905.47
2023-04-11T18:57:31.933Z,98894.50
2023-04-11T19:00:03.944Z,98906.28
2023-04-11T19:02:31.337Z,98887.72
2023-04-11T19:04:57.874Z,98896.84
2023-04-11T19:07:24.329Z,98884.31
2023-04-11T19:09:50.864Z,98885.44
2023-04-11T19:12:19.001Z,98878.97
2023-04-11T19:14:45.456Z,98881.19
2023-04-11T19:17:15.246Z,98876.13
2023-04-11T19:19:43.133Z,98866.56
2023-04-11T19:22:09.842Z,98868.81
2023-04-11T19:24:36.275Z,98875.00
2023-04-11T19:27:02.914Z,98873.03
2023-04-11T19:29:29.609Z,98876.66
2023-04-11T19:31:55.996Z,98876.09
2023-04-11T19:34:22.634Z,98865.94
2023-04-11T19:36:49.034Z,98867.63
2023-04-11T19:39:15.436Z,98864.81
2023-04-11T19:41:46.092Z,98868.59
2023-04-11T19:44:13.119Z,98871.28
2023-04-11T19:46:39.950Z,98866.63
2023-04-11T19:49:06.696Z,98865.66
2023-04-11T19:51:33.090Z,98859.78
2023-04-11T19:53:59.825Z,98861.91
2023-04-11T19:56:26.916Z,98856.31
2023-04-11T19:58:53.300Z,98855.88
2023-04-11T20:01:20.106Z,98855.28
2023-04-11T20:03:46.771Z,98845.63
2023-04-11T20:06:13.572Z,98837.59
2023-04-11T20:08:40.483Z,98832.25
2023-04-11T20:11:06.881Z,98830.56
2023-04-11T20:13:34.176Z,98828.03
2023-04-11T20:16:04.506Z,98825.78
2023-04-11T20:18:31.358Z,98822.69
2023-04-11T20:20:58.034Z,98818.88
2023-04-11T20:23:24.402Z,98823.13
2023-04-11T20:25:50.971Z,98823.25
2023-04-11T20:28:17.331Z,98814.38
2023-04-11T20:30:43.797Z,98811.69
2023-04-11T20:33:10.608Z,98810.34
2023-04-11T20:35:37.114Z,98809.78
2023-04-11T20:38:03.642Z,98806.09
2023-04-11T20:40:30.011Z,98802.47
2023-04-11T20:42:57.266Z,98795.41
2023-04-11T20:45:25.578Z,98790.34
2023-04-11T20:47:52.629Z,98779.09
2023-04-11T20:50:19.768Z,98776.28
2023-04-11T20:52:51.268Z,98767.31
2023-04-11T20:55:17.997Z,98783.06
2023-04-11T20:57:44.947Z,98772.38
2023-04-11T21:00:17.371Z,98764.38
2023-04-11T21:02:45.855Z,98764.38
2023-04-11T21:05:13.647Z,98764.22
2023-04-11T21:07:41.904Z,98759.47
2023-04-11T21:10:09.802Z,98748.19
2023-04-11T21:12:37.085Z,98747.63
2023-04-11T21:15:04.212Z,98749.06
2023-04-11T21:17:35.685Z,98749.31
2023-04-11T21:20:10.036Z,98735.41
2023-04-11T21:22:36.999Z,98730.34
2023-04-11T21:25:04.201Z,98723.59
2023-04-11T21:27:30.780Z,98720.38
2023-04-11T21:29:57.167Z,98715.59
2023-04-11T21:32:23.575Z,98716.16
2023-04-11T21:34:50.218Z,98717.81
2023-04-11T21:37:16.665Z,98714.31
2023-04-11T21:39:43.546Z,98710.97
2023-04-11T21:42:09.948Z,98710.81
2023-04-11T21:44:37.390Z,98720.22
2023-04-11T21:47:04.289Z,98717.28
2023-04-11T21:49:31.317Z,98708.97
2023-04-11T21:51:57.741Z,98713.91
2023-04-11T21:54:24.156Z,98703.91
2023-04-11T21:56:50.655Z,98697.00
2023-04-11T21:59:17.124Z,98706.31
2023-04-11T22:01:44.269Z,98699.69
2023-04-11T22:04:11.234Z,98696.31
2023-04-11T22:06:38.992Z,98694.75
2023-04-11T22:09:05.465Z,98693.66
2023-04-11T22:11:32.429Z,98696.47
2023-04-11T22:14:01.300Z,98692.22
2023-04-11T22:16:31.957Z,98678.16
2023-04-11T22:18:58.859Z,98670.84
2023-04-11T22:21:26.494Z,98667.34
2023-04-11T22:23:56.381Z,98658.59
2023-04-11T22:26:34.207Z,98658.47
2023-04-11T22:29:05.412Z,98652.41
2023-04-11T22:31:34.324Z,98653.09
2023-04-11T22:34:04.012Z,98651.41
2023-04-11T22:36:35.454Z,98637.63
2023-04-11T22:39:04.845Z,98634.66
2023-04-11T22:41:33.468Z,98628.34
2023-04-11T22:44:00.818Z,98619.78
2023-04-11T22:46:34.247Z,98623.16
2023-04-11T22:49:00.665Z,98621.91
2023-04-11T22:51:30.276Z,98628.22
2023-04-11T22:53:57.420Z,98616.56
2023-04-11T22:56:24.215Z,98613.75
2023-04-11T22:58:50.604Z,98611.22
2023-04-11T23:01:17.580Z,98607.81
2023-04-11T23:03:44.059Z,98606.72
2023-04-11T23:06:10.887Z,98606.56
2023-04-11T23:08:37.628Z,98598.56
2023-04-11T23:11:04.989Z,98594.28
2023-04-11T23:13:31.497Z,98580.94
2023-04-11T23:16:00.628Z,98574.63
2023-04-11T23:18:27.080Z,98576.53
2023-04-11T23:20:53.730Z,98573.16
2023-04-11T23:23:20.626Z,98571.59
2023-04-11T23:25:47.116Z,98567.94
2023-04-11T23:28:13.534Z,98550.88
2023-04-11T23:30:40.635Z,98555.41
2023-04-11T23:33:08.868Z,98553.53
2023-04-11T23:35:38.621Z,98547.72
2023-04-11T23:38:05.873Z,98551.13
2023-04-11T23:40:32.705Z,98553.13
2023-04-11T23:42:59.098Z,98548.06
2023-04-11T23:45:25.651Z,98538.53
2023-04-11T23:47:52.737Z,98541.63
2023-04-11T23:50:19.530Z,98538.97
2023-04-11T23:52:46.832Z,98536.97
2023-04-11T23:55:13.485Z,98538.00
2023-04-11T23:57:40.200Z,98521.94
